Time;durP1;ratioP1;P1;durP2;ratioP2;P2;SDS_P1;SDS_P2;PMS_P1;PMS_P2;Temp;Humidity;BMP_temperature;BMP_pressure;BME280_temperature;BME280_humidity;BME280_pressure;Samples;Min_cycle;Max_cycle;Signal;HPM_P1;HPM_P2
2021/03/25 00:02:02;;;;;;;9.03;4.50;;;5.90;71.40;;;;;;6246319;23;20003;-73
2021/03/25 00:04:28;;;;;;;8.33;4.03;;;6.00;71.20;;;;;;6243868;23;20008;-73
2021/03/25 00:06:58;;;;;;;8.47;4.37;;;5.90;71.30;;;;;;6245903;23;20027;-73
2021/03/25 00:09:27;;;;;;;7.00;3.80;;;5.90;71.50;;;;;;6243624;23;20405;-73
2021/03/25 00:11:53;;;;;;;6.43;4.17;;;5.80;71.50;;;;;;6243962;23;20000;-72
2021/03/25 00:14:19;;;;;;;10.93;4.10;;;5.80;71.80;;;;;;6243205;23;20020;-73
2021/03/25 00:16:45;;;;;;;7.47;4.13;;;5.80;72.00;;;;;;6245833;23;20007;-73
2021/03/25 00:19:10;;;;;;;10.00;4.63;;;5.80;72.20;;;;;;6245682;22;20004;-73
2021/03/25 00:21:37;;;;;;;7.47;3.90;;;5.90;71.70;;;;;;6245316;23;20489;-73
2021/03/25 00:24:04;;;;;;;6.90;4.03;;;5.90;71.70;;;;;;6244385;23;20005;-73
2021/03/25 00:26:31;;;;;;;7.87;4.10;;;5.90;71.30;;;;;;6243594;23;20008;-73
2021/03/25 00:28:56;;;;;;;8.57;4.50;;;6.00;71.20;;;;;;6245624;23;20003;-73
2021/03/25 00:31:22;;;;;;;8.60;4.37;;;5.80;71.50;;;;;;6268282;22;20008;-73
2021/03/25 00:33:48;;;;;;;8.93;4.20;;;5.80;72.00;;;;;;6245259;23;20346;-73
2021/03/25 00:36:14;;;;;;;11.20;4.90;;;5.90;71.80;;;;;;6243669;23;20008;-73
2021/03/25 00:38:39;;;;;;;11.30;4.97;;;6.00;71.60;;;;;;6244843;23;20493;-73
2021/03/25 00:41:05;;;;;;;10.30;5.30;;;6.00;71.40;;;;;;6242604;23;20015;-73
2021/03/25 00:43:31;;;;;;;10.27;5.20;;;5.90;71.40;;;;;;6243709;23;20434;-73
2021/03/25 00:45:57;;;;;;;9.30;5.13;;;5.90;71.60;;;;;;6243941;23;20443;-73
2021/03/25 00:48:24;;;;;;;10.50;4.97;;;5.80;72.00;;;;;;6244748;23;20051;-73
2021/03/25 00:50:55;;;;;;;9.27;5.50;;;5.70;72.60;;;;;;6245457;23;20438;-73
2021/03/25 00:53:24;;;;;;;14.50;5.68;;;5.60;72.70;;;;;;6243228;23;20004;-73
2021/03/25 00:55:51;;;;;;;8.93;4.70;;;5.40;73.70;;;;;;6243765;23;20016;-73
2021/03/25 00:58:16;;;;;;;8.50;4.53;;;5.40;74.50;;;;;;6243831;23;20010;-72
2021/03/25 01:00:44;;;;;;;7.90;4.93;;;5.40;74.10;;;;;;6244575;23;20078;-73
2021/03/25 01:03:12;;;;;;;9.30;5.50;;;5.30;74.30;;;;;;6245313;22;20219;-74
2021/03/25 01:05:38;;;;;;;11.07;5.00;;;5.30;74.40;;;;;;6242909;23;20004;-73
2021/03/25 01:08:04;;;;;;;8.93;4.33;;;5.20;74.70;;;;;;6243997;23;20026;-73
2021/03/25 01:10:36;;;;;;;7.70;4.73;;;5.20;74.70;;;;;;6244854;23;20157;-73
2021/03/25 01:13:07;;;;;;;9.85;4.80;;;5.20;74.90;;;;;;6243523;23;20004;-73
2021/03/25 01:15:32;;;;;;;10.30;4.90;;;5.20;75.20;;;;;;6243296;23;20016;-73
2021/03/25 01:18:00;;;;;;;9.50;5.17;;;5.20;75.60;;;;;;6269440;22;20498;-73
2021/03/25 01:20:35;;;;;;;8.47;4.83;;;5.30;75.50;;;;;;6268774;22;20000;-73
2021/03/25 01:23:02;;;;;;;7.53;4.43;;;5.30;75.40;;;;;;6244008;23;20019;-73
2021/03/25 01:25:28;;;;;;;8.30;4.60;;;5.40;75.50;;;;;;6243078;23;20008;-73
2021/03/25 01:27:58;;;;;;;6.87;3.90;;;5.50;75.50;;;;;;6243844;23;20000;-73
2021/03/25 01:30:26;;;;;;;7.47;4.20;;;5.60;74.90;;;;;;6243251;23;20010;-73
2021/03/25 01:32:52;;;;;;;7.90;4.60;;;5.60;74.60;;;;;;6245284;23;19997;-73
2021/03/25 01:35:18;;;;;;;6.70;3.57;;;5.70;74.40;;;;;;6245250;23;20078;-73
2021/03/25 01:37:45;;;;;;;6.47;3.70;;;5.70;74.30;;;;;;6244046;23;20434;-73
2021/03/25 01:40:18;;;;;;;5.43;3.37;;;5.80;73.90;;;;;;6244944;23;20000;-73
2021/03/25 01:42:44;;;;;;;7.97;3.50;;;5.90;73.50;;;;;;6242971;23;20035;-73
2021/03/25 01:45:33;;;;;;;8.00;3.37;;;6.00;72.90;;;;;;6243629;23;20312;-73
2021/03/25 01:48:00;;;;;;;7.07;3.97;;;6.10;72.40;;;;;;6232954;23;20009;-73
2021/03/25 01:50:26;;;;;;;7.67;3.93;;;6.10;72.20;;;;;;6242862;23;20070;-73
2021/03/25 01:53:22;;;;;;;8.20;4.03;;;6.00;72.30;;;;;;6269224;22;20431;-73
2021/03/25 01:56:11;;;;;;;8.10;4.00;;;6.00;72.60;;;;;;6242840;23;20449;-73
2021/03/25 01:58:43;;;;;;;7.53;3.90;;;5.80;73.10;;;;;;6243095;22;20308;-73
2021/03/25 02:01:26;;;;;;;8.85;4.18;;;5.70;73.30;;;;;;6245337;22;20055;-73
2021/03/25 02:04:06;;;;;;;6.27;3.80;;;5.70;73.60;;;;;;6243696;23;20031;-73
2021/03/25 02:06:58;;;;;;;8.40;3.50;;;5.70;73.60;;;;;;6242839;23;20366;-73
2021/03/25 02:09:39;;;;;;;8.32;4.05;;;5.70;74.00;;;;;;6243728;23;20084;-73
2021/03/25 02:12:29;;;;;;;8.00;3.80;;;5.70;74.40;;;;;;6269070;22;20082;-72
2021/03/25 02:15:11;;;;;;;7.33;3.73;;;5.70;74.30;;;;;;6245259;23;20020;-73
2021/03/25 02:17:54;;;;;;;6.50;3.60;;;5.70;74.50;;;;;;6242977;23;20358;-73
2021/03/25 02:20:47;;;;;;;7.60;3.60;;;5.70;74.50;;;;;;6244889;23;19997;-73
2021/03/25 02:23:53;;;;;;;6.53;3.60;;;5.80;74.20;;;;;;6243487;23;20004;-74
2021/03/25 02:26:48;;;;;;;8.00;3.50;;;5.70;73.70;;;;;;6244846;22;20335;-73
2021/03/25 02:29:27;;;;;;;6.30;3.63;;;5.80;73.70;;;;;;6201751;23;20000;-74
2021/03/25 02:31:58;;;;;;;8.43;3.90;;;5.80;73.50;;;;;;6243525;23;20052;-72
2021/03/25 02:34:30;;;;;;;7.30;3.70;;;5.80;73.40;;;;;;6243389;23;20040;-72
2021/03/25 02:37:02;;;;;;;6.60;3.60;;;5.80;74.10;;;;;;6243466;23;20083;-72
2021/03/25 02:39:56;;;;;;;6.68;3.55;;;5.70;74.10;;;;;;6244282;23;20031;-73
2021/03/25 02:42:29;;;;;;;8.07;4.20;;;5.70;74.00;;;;;;6243359;23;20016;-72
2021/03/25 02:45:17;;;;;;;6.67;3.70;;;5.80;74.00;;;;;;6269375;22;20012;-73
2021/03/25 02:47:46;;;;;;;6.33;3.50;;;5.80;74.10;;;;;;6244048;23;20004;-73
2021/03/25 02:50:21;;;;;;;8.03;4.00;;;5.80;73.90;;;;;;6268883;22;20000;-72
2021/03/25 02:52:53;;;;;;;7.17;3.67;;;5.80;73.90;;;;;;6244149;23;20007;-72
2021/03/25 02:55:19;;;;;;;9.20;4.60;;;5.70;73.60;;;;;;6243443;23;20016;-72
2021/03/25 02:57:52;;;;;;;9.23;4.90;;;5.60;73.40;;;;;;6243169;23;20004;-72
2021/03/25 03:00:27;;;;;;;5.73;3.80;;;5.40;73.60;;;;;;6246775;23;20000;-72
2021/03/25 03:03:06;;;;;;;9.40;4.43;;;5.40;74.20;;;;;;6245267;23;20043;-72
2021/03/25 03:05:35;;;;;;;7.57;3.77;;;5.40;74.20;;;;;;6244558;23;20034;-73
2021/03/25 03:08:12;;;;;;;6.60;3.60;;;5.30;74.40;;;;;;6244972;23;20004;-72
2021/03/25 03:10:47;;;;;;;11.57;4.17;;;5.30;74.50;;;;;;6244488;23;20016;-74
2021/03/25 03:13:15;;;;;;;8.33;4.07;;;5.20;74.70;;;;;;6270195;22;20099;-72
2021/03/25 03:16:01;;;;;;;6.33;3.60;;;5.20;74.70;;;;;;6245840;23;20030;-72
2021/03/25 03:18:42;;;;;;;11.37;4.00;;;5.20;74.50;;;;;;6246659;23;20020;-73
2021/03/25 03:21:30;;;;;;;6.93;3.70;;;5.20;74.40;;;;;;6245240;23;20300;-72
2021/03/25 03:23:56;;;;;;;7.83;3.83;;;5.00;74.60;;;;;;6245262;23;20031;-73
2021/03/25 03:26:31;;;;;;;7.43;3.77;;;4.90;75.10;;;;;;6270301;22;20018;-72
2021/03/25 03:29:04;;;;;;;8.33;3.77;;;5.00;75.40;;;;;;6246538;23;20058;-72
2021/03/25 03:31:40;;;;;;;6.13;3.23;;;5.00;75.10;;;;;;6244436;23;20000;-74
2021/03/25 03:34:21;;;;;;;6.93;3.47;;;5.00;75.00;;;;;;6244443;23;20079;-73
2021/03/25 03:36:50;;;;;;;7.33;3.60;;;4.90;75.10;;;;;;6269763;22;20000;-72
2021/03/25 03:39:21;;;;;;;8.77;3.77;;;4.90;75.30;;;;;;6244800;23;20000;-72
2021/03/25 03:41:55;;;;;;;6.93;3.50;;;4.90;75.00;;;;;;6244149;23;20015;-73
2021/03/25 03:44:25;;;;;;;6.50;3.53;;;4.80;75.40;;;;;;6246705;23;20004;-72
2021/03/25 03:46:53;;;;;;;8.47;4.30;;;4.70;75.60;;;;;;6245720;23;20004;-73
2021/03/25 03:49:37;;;;;;;7.33;4.07;;;4.70;75.90;;;;;;6270634;22;20010;-72
2021/03/25 03:52:25;;;;;;;7.27;3.93;;;4.70;75.60;;;;;;6244975;23;20004;-72
2021/03/25 03:54:54;;;;;;;8.77;4.27;;;4.60;75.50;;;;;;6242773;23;20328;-73
2021/03/25 03:57:35;;;;;;;6.50;3.83;;;4.50;75.50;;;;;;6244821;23;20007;-73
2021/03/25 04:00:18;;;;;;;6.13;3.70;;;4.50;75.60;;;;;;6246273;23;20007;-72
2021/03/25 04:03:20;;;;;;;6.30;3.57;;;4.50;75.80;;;;;;6243834;23;19997;-72
2021/03/25 04:05:55;;;;;;;7.07;3.30;;;4.40;76.40;;;;;;6243876;23;20094;-72
2021/03/25 04:08:29;;;;;;;7.37;4.13;;;4.40;76.50;;;;;;6244455;23;20373;-72
2021/03/25 04:11:02;;;;;;;7.33;3.50;;;4.30;76.90;;;;;;6245076;22;20039;-72
2021/03/25 04:13:35;;;;;;;6.70;3.40;;;4.30;76.70;;;;;;6244183;23;20016;-72
2021/03/25 04:16:01;;;;;;;6.03;3.50;;;4.40;76.80;;;;;;6245898;23;20019;-72
2021/03/25 04:18:44;;;;;;;5.73;2.90;;;4.40;76.70;;;;;;6244453;23;20000;-72
2021/03/25 04:21:11;;;;;;;;;;;4.50;76.60;;;;;;6244922;23;20028;-72
2021/03/25 04:23:41;;;;;;;8.77;3.20;;;4.40;76.60;;;;;;6245194;23;19907;-72
2021/03/25 04:26:13;;;;;;;6.27;3.10;;;4.50;76.30;;;;;;6245863;23;19996;-72
2021/03/25 04:28:43;;;;;;;4.80;3.20;;;4.50;76.30;;;;;;6243596;23;20024;-74
2021/03/25 04:31:09;;;;;;;6.17;2.80;;;4.50;76.10;;;;;;6245638;23;20064;-74
2021/03/25 04:33:38;;;;;;;6.13;3.37;;;4.40;76.30;;;;;;6245157;23;20003;-75
2021/03/25 04:36:09;;;;;;;5.27;2.97;;;4.40;76.40;;;;;;6269797;22;20012;-74
2021/03/25 04:38:39;;;;;;;8.00;3.80;;;4.40;76.50;;;;;;6243610;23;20430;-75
2021/03/25 04:41:05;;;;;;;6.47;3.50;;;4.40;76.70;;;;;;6244249;23;20028;-74
2021/03/25 04:43:31;;;;;;;7.70;3.07;;;4.40;76.20;;;;;;6269175;22;20004;-72
2021/03/25 04:46:35;;;;;;;5.13;2.90;;;4.30;76.30;;;;;;6243344;23;20016;-73
2021/03/25 04:49:13;;;;;;;5.97;3.07;;;4.40;76.50;;;;;;6245863;23;20081;-72
2021/03/25 04:51:38;;;;;;;5.93;3.27;;;4.40;76.20;;;;;;6243472;23;20005;-73
2021/03/25 04:54:31;;;;;;;6.77;3.47;;;4.30;76.50;;;;;;6243977;23;20058;-72
2021/03/25 04:56:59;;;;;;;;;;;4.30;76.50;;;;;;6243139;23;20012;-72
2021/03/25 04:59:25;;;;;;;6.43;3.70;;;4.20;76.90;;;;;;6245539;23;19899;-72
2021/03/25 05:01:51;;;;;;;5.67;3.63;;;4.20;76.60;;;;;;6243389;23;20012;-72
2021/03/25 05:04:16;;;;;;;6.97;3.27;;;4.10;76.60;;;;;;6245172;23;20024;-73
2021/03/25 05:07:00;;;;;;;6.83;3.70;;;4.10;76.60;;;;;;6244806;23;20095;-73
2021/03/25 05:09:28;;;;;;;6.53;3.50;;;4.00;76.80;;;;;;6244101;23;20011;-72
2021/03/25 05:11:55;;;;;;;6.33;3.23;;;4.00;77.00;;;;;;6243365;23;20042;-72
2021/03/25 05:14:28;;;;;;;9.00;3.77;;;4.00;76.90;;;;;;6268604;22;20130;-72
2021/03/25 05:16:53;;;;;;;5.57;3.37;;;4.00;77.50;;;;;;6243165;23;20017;-72
2021/03/25 05:19:54;;;;;;;7.77;3.80;;;4.00;77.70;;;;;;6245363;23;20506;-73
2021/03/25 05:22:40;;;;;;;7.53;3.67;;;4.00;77.20;;;;;;6243665;23;20007;-72
2021/03/25 05:25:27;;;;;;;7.87;3.43;;;4.00;77.20;;;;;;6245088;22;20000;-72
2021/03/25 05:28:04;;;;;;;5.73;3.47;;;4.00;77.20;;;;;;6244748;23;20423;-72
2021/03/25 05:30:35;;;;;;;8.43;3.97;;;3.90;77.50;;;;;;6243984;23;20058;-72
2021/03/25 05:33:05;;;;;;;8.68;3.63;;;4.00;77.30;;;;;;6243058;23;20004;-72
2021/03/25 05:35:38;;;;;;;7.67;4.20;;;4.00;77.10;;;;;;6269060;22;20008;-72
2021/03/25 05:38:04;;;;;;;7.53;4.43;;;4.10;77.00;;;;;;6245620;23;19996;-72
2021/03/25 05:41:07;;;;;;;8.53;4.13;;;4.00;77.10;;;;;;6243620;23;20015;-73
2021/03/25 05:44:06;;;;;;;9.20;4.17;;;4.00;77.40;;;;;;6209527;23;20062;-72
2021/03/25 05:46:36;;;;;;;6.87;4.10;;;4.00;77.30;;;;;;6243757;23;20095;-72
2021/03/25 05:49:23;;;;;;;7.97;4.07;;;4.00;77.30;;;;;;6245222;23;19996;-72
2021/03/25 05:52:13;;;;;;;9.47;4.27;;;4.00;77.30;;;;;;6243074;23;20035;-72
2021/03/25 05:55:07;;;;;;;7.03;3.87;;;4.00;77.40;;;;;;6244459;23;20007;-73
2021/03/25 05:57:56;;;;;;;6.60;3.83;;;4.00;77.80;;;;;;6243835;23;20497;-74
2021/03/25 06:00:34;;;;;;;6.57;3.40;;;4.10;77.90;;;;;;6243719;23;20000;-74
2021/03/25 06:03:10;;;;;;;6.00;3.20;;;4.20;77.60;;;;;;6242956;23;20027;-74
2021/03/25 06:05:36;;;;;;;7.57;3.50;;;4.30;77.60;;;;;;6244924;23;20014;-74
2021/03/25 06:08:08;;;;;;;6.43;3.30;;;4.40;77.70;;;;;;6244555;23;20376;-74
2021/03/25 06:10:53;;;;;;;7.03;3.53;;;4.60;77.30;;;;;;6269055;22;20011;-74
2021/03/25 06:13:42;;;;;;;8.20;3.40;;;4.60;77.10;;;;;;6243212;23;20020;-74
2021/03/25 06:16:20;;;;;;;5.73;3.20;;;4.80;77.00;;;;;;6244684;23;20000;-72
2021/03/25 06:18:57;;;;;;;7.20;3.80;;;5.00;76.30;;;;;;6242787;23;20004;-75
2021/03/25 06:22:00;;;;;;;6.17;3.27;;;5.00;75.40;;;;;;6243490;23;20027;-74
2021/03/25 06:24:29;;;;;;;4.50;2.87;;;5.10;75.10;;;;;;6243558;22;19993;-74
2021/03/25 06:27:14;;;;;;;6.00;2.97;;;5.10;75.10;;;;;;6244260;23;20003;-74
2021/03/25 06:29:58;;;;;;;6.40;3.03;;;5.10;75.10;;;;;;6243104;23;19997;-77
2021/03/25 06:32:44;;;;;;;6.40;3.07;;;5.20;75.10;;;;;;6270161;22;20012;-74
2021/03/25 06:35:15;;;;;;;8.87;3.30;;;5.30;74.70;;;;;;6246771;22;20079;-74
2021/03/25 06:37:43;;;;;;;6.33;3.20;;;5.40;74.70;;;;;;6270351;22;20035;-76
2021/03/25 06:40:23;;;;;;;6.37;3.33;;;5.40;74.50;;;;;;6247003;23;20435;-74
2021/03/25 06:43:06;;;;;;;4.90;2.83;;;5.50;74.70;;;;;;6246421;23;20502;-73
2021/03/25 06:45:41;;;;;;;8.73;3.40;;;5.50;74.30;;;;;;6271001;22;20099;-74
2021/03/25 06:48:31;;;;;;;6.53;3.67;;;5.60;74.40;;;;;;6246869;23;19996;-74
2021/03/25 06:50:56;;;;;;;6.93;3.40;;;5.60;74.50;;;;;;6246212;23;20028;-73
2021/03/25 06:53:27;;;;;;;10.03;3.30;;;5.70;74.90;;;;;;6245320;23;20070;-74
2021/03/25 06:56:04;;;;;;;6.50;3.20;;;5.70;74.80;;;;;;6245756;23;20079;-74
2021/03/25 06:58:48;;;;;;;7.50;3.07;;;5.80;75.00;;;;;;6245508;23;20431;-75
2021/03/25 07:01:13;;;;;;;7.23;3.53;;;5.80;75.40;;;;;;6246767;23;20006;-75
2021/03/25 07:03:40;;;;;;;7.10;3.57;;;5.90;76.00;;;;;;6245142;23;20327;-74
2021/03/25 07:06:06;;;;;;;6.00;3.47;;;6.00;75.80;;;;;;6244397;23;20012;-75
2021/03/25 07:08:32;;;;;;;6.83;3.40;;;6.10;75.20;;;;;;6270858;22;20071;-74
2021/03/25 07:11:04;;;;;;;6.70;3.60;;;6.20;74.90;;;;;;6245904;23;20023;-74
2021/03/25 07:13:43;;;;;;;8.38;3.60;;;6.30;74.10;;;;;;6244606;23;20016;-74
2021/03/25 07:16:11;;;;;;;8.10;3.50;;;6.40;73.80;;;;;;6246498;23;20016;-74
2021/03/25 07:18:58;;;;;;;6.60;3.47;;;6.50;73.50;;;;;;6246295;22;20000;-75
2021/03/25 07:21:40;;;;;;;5.50;3.47;;;6.60;73.20;;;;;;6245069;23;20019;-75
2021/03/25 07:24:23;;;;;;;7.00;3.13;;;6.60;73.10;;;;;;6244453;23;20094;-75
2021/03/25 07:27:14;;;;;;;6.57;4.00;;;6.70;72.50;;;;;;6245774;22;20000;-75
2021/03/25 07:29:55;;;;;;;6.68;3.80;;;6.80;72.60;;;;;;6228465;23;20095;-74
2021/03/25 07:33:04;;;;;;;8.90;4.87;;;6.80;71.50;;;;;;6270647;22;20012;-74
2021/03/25 07:35:40;;;;;;;7.47;4.23;;;6.90;71.10;;;;;;6212755;23;20008;-74
2021/03/25 07:38:21;;;;;;;7.93;4.10;;;7.00;70.90;;;;;;6244188;23;20004;-74
2021/03/25 07:41:01;;;;;;;9.67;3.97;;;7.10;70.90;;;;;;6244190;23;20083;-74
2021/03/25 07:43:29;;;;;;;9.63;4.40;;;7.20;70.80;;;;;;6269854;22;20074;-73
2021/03/25 07:46:16;;;;;;;8.30;3.80;;;7.20;71.00;;;;;;6244150;23;20103;-73
2021/03/25 07:49:00;;;;;;;8.30;4.30;;;7.40;70.80;;;;;;6244869;23;20008;-73
2021/03/25 07:51:25;;;;;;;8.13;3.87;;;7.50;70.10;;;;;;6244420;23;19996;-73
2021/03/25 07:54:12;;;;;;;7.50;4.07;;;7.50;69.70;;;;;;6245513;23;20009;-73
2021/03/25 07:56:52;;;;;;;9.57;4.43;;;7.60;69.70;;;;;;6244605;23;20008;-73
2021/03/25 07:59:33;;;;;;;7.47;4.10;;;7.70;70.00;;;;;;6246268;23;20135;-73
2021/03/25 08:01:59;;;;;;;9.57;4.50;;;7.80;69.80;;;;;;6243813;23;20005;-73
2021/03/25 08:04:28;;;;;;;9.33;4.13;;;7.90;69.20;;;;;;6244585;23;20000;-73
2021/03/25 08:07:12;;;;;;;8.60;4.00;;;8.00;68.50;;;;;;6243879;23;20007;-73
2021/03/25 08:09:57;;;;;;;6.23;3.80;;;8.10;68.10;;;;;;6244500;23;20000;-73
2021/03/25 08:12:35;;;;;;;8.90;4.07;;;8.20;67.60;;;;;;6244694;23;20495;-73
2021/03/25 08:15:20;;;;;;;10.40;4.10;;;8.30;67.20;;;;;;6243535;23;20024;-72
2021/03/25 08:18:06;;;;;;;7.33;4.60;;;8.40;66.70;;;;;;6243990;23;20000;-76
2021/03/25 08:20:36;;;;;;;8.10;4.07;;;8.50;66.40;;;;;;6269807;22;20004;-74
2021/03/25 08:23:22;;;;;;;6.70;4.07;;;8.60;66.50;;;;;;6244633;23;20020;-74
2021/03/25 08:25:57;;;;;;;6.80;4.30;;;8.70;65.80;;;;;;6182110;23;20004;-75
2021/03/25 08:28:22;;;;;;;7.40;4.10;;;8.80;65.70;;;;;;6242093;23;20004;-75
2021/03/25 08:31:15;;;;;;;7.45;4.60;;;8.80;64.70;;;;;;6242655;23;20046;-76
2021/03/25 08:34:01;;;;;;;6.00;3.58;;;8.90;64.80;;;;;;6243848;23;20015;-75
2021/03/25 08:36:27;;;;;;;9.80;4.13;;;9.00;65.10;;;;;;6243640;23;20103;-73
2021/03/25 08:39:00;;;;;;;7.18;4.28;;;9.10;65.50;;;;;;6244164;23;20024;-74
2021/03/25 08:41:38;;;;;;;7.05;4.47;;;9.20;65.10;;;;;;6269097;22;20004;-74
2021/03/25 08:44:11;;;;;;;6.50;3.90;;;9.30;65.00;;;;;;6268502;22;20008;-73
2021/03/25 08:46:46;;;;;;;8.57;4.03;;;9.40;64.80;;;;;;6243632;23;20048;-74
2021/03/25 08:49:24;;;;;;;8.30;4.10;;;9.50;62.90;;;;;;6243056;23;20015;-74
2021/03/25 08:51:52;;;;;;;9.77;4.18;;;9.70;63.80;;;;;;6244320;23;20047;-74
2021/03/25 08:54:29;;;;;;;7.63;4.05;;;9.80;63.00;;;;;;6244897;23;20004;-72
2021/03/25 08:57:07;;;;;;;8.52;4.00;;;9.90;61.80;;;;;;6241437;23;20000;-75
2021/03/25 08:59:37;;;;;;;7.45;3.65;;;10.00;60.90;;;;;;6245139;23;20015;-74
2021/03/25 09:02:24;;;;;;;9.18;4.38;;;10.10;61.20;;;;;;6242941;23;19996;-72
2021/03/25 09:05:05;;;;;;;8.40;3.78;;;10.10;61.00;;;;;;6243089;23;20007;-73
2021/03/25 09:07:33;;;;;;;9.10;4.50;;;10.20;60.50;;;;;;6244101;23;20000;-72
2021/03/25 09:10:04;;;;;;;9.32;4.50;;;10.30;60.50;;;;;;6242816;23;20031;-73
2021/03/25 09:12:32;;;;;;;9.57;4.03;;;10.50;60.10;;;;;;6245069;23;20071;-74
2021/03/25 09:15:00;;;;;;;9.80;4.05;;;10.50;59.60;;;;;;6244578;23;20020;-73
2021/03/25 09:17:33;;;;;;;10.32;3.80;;;10.70;59.20;;;;;;6245226;23;20006;-73
2021/03/25 09:19:59;;;;;;;8.32;3.95;;;10.70;58.30;;;;;;6242961;23;20019;-73
2021/03/25 09:22:37;;;;;;;10.48;4.20;;;10.80;59.20;;;;;;6243544;23;20004;-73
2021/03/25 09:25:31;;;;;;;8.73;3.80;;;11.00;58.90;;;;;;6244484;23;20004;-73
2021/03/25 09:27:58;;;;;;;9.70;4.00;;;11.10;58.40;;;;;;6244291;23;20415;-73
2021/03/25 09:30:43;;;;;;;11.07;3.90;;;11.20;59.10;;;;;;6243421;22;20000;-74
2021/03/25 09:33:36;;;;;;;8.60;3.97;;;11.40;58.30;;;;;;6244083;23;20335;-73
2021/03/25 09:36:17;;;;;;;11.68;3.50;;;11.60;56.80;;;;;;6242367;22;20465;-73
2021/03/25 09:38:46;;;;;;;9.27;3.85;;;11.60;56.60;;;;;;6243321;22;20423;-73
2021/03/25 09:41:28;;;;;;;12.32;4.25;;;11.70;55.80;;;;;;6242649;23;20135;-73
2021/03/25 09:43:55;;;;;;;8.02;3.70;;;11.80;55.60;;;;;;6242978;22;20031;-73
2021/03/25 09:46:29;;;;;;;9.88;4.63;;;11.90;55.10;;;;;;6243436;23;20016;-73
2021/03/25 09:49:20;;;;;;;10.77;4.25;;;11.90;55.10;;;;;;6268547;22;20004;-73
2021/03/25 09:52:07;;;;;;;10.13;4.15;;;12.00;54.90;;;;;;6245284;22;20001;-73
2021/03/25 09:54:44;;;;;;;10.82;4.20;;;12.10;56.00;;;;;;6243536;23;20031;-75
2021/03/25 09:57:31;;;;;;;12.57;5.07;;;12.20;55.70;;;;;;6243780;23;20028;-76
2021/03/25 10:00:06;;;;;;;13.60;5.90;;;12.30;54.50;;;;;;6267961;22;20481;-73
2021/03/25 10:02:41;;;;;;;12.45;5.18;;;12.30;54.70;;;;;;6241643;23;20015;-72
2021/03/25 10:05:30;;;;;;;15.98;5.20;;;12.40;55.30;;;;;;6241338;22;20431;-74
2021/03/25 10:08:00;;;;;;;16.05;5.32;;;12.50;55.60;;;;;;6269993;22;20427;-74
2021/03/25 10:10:43;;;;;;;13.95;5.00;;;12.60;55.50;;;;;;6245508;22;20323;-74
2021/03/25 10:13:12;;;;;;;12.63;5.10;;;12.70;54.80;;;;;;6244663;23;20058;-74
2021/03/25 10:15:51;;;;;;;13.35;5.95;;;12.70;55.20;;;;;;6245511;23;20106;-73
2021/03/25 10:18:17;;;;;;;15.35;6.10;;;12.80;54.40;;;;;;6247121;22;20008;-74
2021/03/25 10:20:52;;;;;;;12.23;6.03;;;12.80;54.30;;;;;;6245270;22;20008;-73
2021/03/25 10:23:18;;;;;;;17.05;6.85;;;12.90;54.60;;;;;;6245588;23;20014;-74
2021/03/25 10:25:44;;;;;;;14.70;6.70;;;12.90;54.00;;;;;;6245308;22;20032;-74
2021/03/25 10:28:14;;;;;;;14.57;5.90;;;13.00;53.90;;;;;;6244770;23;20000;-73
2021/03/25 10:30:41;;;;;;;19.77;8.27;;;13.00;54.30;;;;;;6245180;23;20058;-73
2021/03/25 10:33:10;;;;;;;16.20;7.03;;;13.10;54.10;;;;;;6244563;23;20044;-73
2021/03/25 10:35:54;;;;;;;16.65;7.40;;;13.10;53.60;;;;;;6245218;23;20005;-73
2021/03/25 10:38:26;;;;;;;18.30;7.68;;;13.20;53.60;;;;;;6245661;23;20034;-74
2021/03/25 10:40:59;;;;;;;14.90;6.88;;;13.20;53.30;;;;;;6245362;23;20008;-75
2021/03/25 10:43:30;;;;;;;17.65;7.43;;;13.40;54.10;;;;;;6244934;23;20000;-74
2021/03/25 10:46:06;;;;;;;19.15;7.53;;;13.40;53.50;;;;;;6246086;22;20525;-74
2021/03/25 10:48:38;;;;;;;15.52;7.65;;;13.50;53.20;;;;;;6245122;23;20031;-74
2021/03/25 10:51:14;;;;;;;17.77;8.27;;;13.50;53.20;;;;;;6242047;23;20441;-74
2021/03/25 10:53:43;;;;;;;19.23;7.45;;;13.60;53.80;;;;;;6244162;23;20039;-74
2021/03/25 10:56:18;;;;;;;16.85;7.85;;;13.60;54.10;;;;;;6243607;23;20012;-74
2021/03/25 10:58:53;;;;;;;17.33;7.20;;;13.70;53.20;;;;;;6245957;23;20005;-74
2021/03/25 11:01:25;;;;;;;20.10;8.18;;;13.80;52.90;;;;;;6245744;22;20023;-74
2021/03/25 11:03:52;;;;;;;16.55;7.00;;;13.80;52.80;;;;;;6245779;23;20004;-74
2021/03/25 11:06:33;;;;;;;17.52;7.50;;;13.90;52.70;;;;;;6243609;23;20458;-74
2021/03/25 11:09:23;;;;;;;17.50;8.13;;;13.90;52.50;;;;;;6245827;23;20011;-74
2021/03/25 11:12:00;;;;;;;14.43;6.75;;;14.00;52.10;;;;;;6244739;23;20016;-73
2021/03/25 11:14:36;;;;;;;16.45;7.30;;;14.10;51.70;;;;;;6244179;22;20469;-78
2021/03/25 11:17:17;;;;;;;15.68;7.43;;;14.20;51.70;;;;;;6268970;22;20415;-78
2021/03/25 11:19:45;;;;;;;16.67;7.13;;;14.20;51.30;;;;;;6244893;23;20071;-77
2021/03/25 11:22:12;;;;;;;18.92;7.00;;;14.30;51.30;;;;;;6244891;23;20079;-78
2021/03/25 11:24:39;;;;;;;15.07;7.43;;;14.40;50.60;;;;;;6244533;23;20423;-77
2021/03/25 11:27:14;;;;;;;15.77;7.30;;;14.50;51.20;;;;;;6243275;23;20446;-79
2021/03/25 11:29:41;;;;;;;17.30;7.28;;;14.50;50.70;;;;;;6270012;22;20036;-78
2021/03/25 11:32:24;;;;;;;17.42;7.50;;;14.60;51.00;;;;;;6242628;23;20008;-78
2021/03/25 11:34:52;;;;;;;18.58;7.38;;;14.70;50.70;;;;;;6245838;23;20323;-74
2021/03/25 11:37:33;;;;;;;15.70;7.22;;;14.80;50.50;;;;;;6243819;23;20008;-75
2021/03/25 11:40:12;;;;;;;14.57;6.68;;;14.80;51.00;;;;;;6243594;23;20008;-75
2021/03/25 11:42:39;;;;;;;19.13;8.10;;;14.90;50.90;;;;;;6244382;23;20319;-74
2021/03/25 11:45:06;;;;;;;16.73;7.50;;;14.90;50.70;;;;;;6245092;23;20028;-75
2021/03/25 11:47:53;;;;;;;16.40;6.82;;;14.90;50.50;;;;;;6244388;23;20024;-75
2021/03/25 11:50:18;;;;;;;13.90;7.05;;;14.90;50.60;;;;;;6269584;22;20001;-74
2021/03/25 11:52:50;;;;;;;17.63;7.78;;;15.00;50.40;;;;;;6244302;22;20000;-75
2021/03/25 11:55:39;;;;;;;17.50;7.22;;;15.00;50.20;;;;;;6243598;23;20012;-73
2021/03/25 11:58:22;;;;;;;15.45;7.13;;;15.10;49.80;;;;;;6268823;22;20011;-74
2021/03/25 12:01:14;;;;;;;14.73;6.53;;;15.20;50.60;;;;;;6244300;23;20008;-74
2021/03/25 12:04:14;;;;;;;15.17;6.47;;;15.30;50.70;;;;;;6243992;23;20011;-73
2021/03/25 12:07:03;;;;;;;18.25;7.20;;;15.30;49.90;;;;;;6222491;23;20560;-74
2021/03/25 12:09:31;;;;;;;15.10;6.68;;;15.30;50.00;;;;;;6245713;23;19996;-74
2021/03/25 12:11:59;;;;;;;16.70;6.32;;;15.40;50.50;;;;;;6243197;23;20016;-75
2021/03/25 12:14:25;;;;;;;17.30;7.32;;;15.40;49.70;;;;;;6245651;22;20020;-74
2021/03/25 12:16:59;;;;;;;14.93;7.53;;;15.50;49.80;;;;;;6245142;23;20004;-74
2021/03/25 12:19:25;;;;;;;16.17;7.15;;;15.60;48.60;;;;;;6244076;23;20008;-75
2021/03/25 12:21:51;;;;;;;18.63;8.40;;;15.70;49.20;;;;;;6245389;23;20001;-75
2021/03/25 12:24:18;;;;;;;19.27;8.20;;;15.80;48.40;;;;;;6245054;23;20004;-75
2021/03/25 12:26:47;;;;;;;17.00;8.05;;;15.90;48.50;;;;;;6243871;23;20000;-74
2021/03/25 12:29:13;;;;;;;17.95;8.23;;;16.10;48.60;;;;;;6243279;23;19996;-74
2021/03/25 12:31:43;;;;;;;17.48;8.70;;;16.30;47.80;;;;;;6243893;23;20066;-75
2021/03/25 12:34:11;;;;;;;15.02;7.85;;;16.60;46.50;;;;;;6269071;22;19996;-74
2021/03/25 12:36:37;;;;;;;18.42;7.70;;;16.90;46.10;;;;;;6245153;23;20351;-75
2021/03/25 12:39:06;;;;;;;18.63;7.72;;;17.00;44.40;;;;;;6244945;23;20419;-76
2021/03/25 12:41:38;;;;;;;15.35;6.93;;;17.00;44.80;;;;;;6243862;23;20000;-74
2021/03/25 12:44:06;;;;;;;18.08;7.63;;;17.10;46.00;;;;;;6243199;23;20011;-74
2021/03/25 12:46:32;;;;;;;16.40;7.50;;;17.20;45.20;;;;;;6243744;23;20074;-74
2021/03/25 12:48:58;;;;;;;16.63;7.40;;;17.20;43.60;;;;;;6244467;23;20075;-75
2021/03/25 12:51:24;;;;;;;17.15;7.70;;;17.10;44.10;;;;;;6243934;23;20367;-75
2021/03/25 12:53:50;;;;;;;19.00;7.80;;;17.10;43.40;;;;;;6268755;22;20004;-75
2021/03/25 12:56:32;;;;;;;18.70;7.50;;;17.00;43.20;;;;;;6242852;23;20008;-75
2021/03/25 12:59:02;;;;;;;11.98;6.75;;;17.10;43.80;;;;;;6268654;22;20400;-76
2021/03/25 13:01:30;;;;;;;16.00;7.13;;;17.30;42.80;;;;;;6245547;23;20075;-74
2021/03/25 13:03:56;;;;;;;11.98;5.90;;;17.50;42.10;;;;;;6242778;23;20349;-76
2021/03/25 13:06:23;;;;;;;16.98;7.45;;;17.70;42.00;;;;;;6268902;22;20370;-75
2021/03/25 13:08:50;;;;;;;15.15;6.38;;;18.00;40.80;;;;;;6243533;23;20366;-75
2021/03/25 13:11:23;;;;;;;14.20;5.95;;;17.90;41.80;;;;;;6244395;22;20004;-75
2021/03/25 13:13:49;;;;;;;16.92;6.18;;;17.80;41.60;;;;;;6244732;23;20016;-75
2021/03/25 13:16:15;;;;;;;14.63;7.60;;;17.90;41.60;;;;;;6242915;23;20211;-73
2021/03/25 13:18:41;;;;;;;15.77;7.80;;;17.90;42.30;;;;;;6244637;23;20059;-75
2021/03/25 13:21:08;;;;;;;16.63;7.38;;;17.90;42.50;;;;;;6242615;23;20000;-74
2021/03/25 13:23:34;;;;;;;16.83;6.00;;;17.80;42.40;;;;;;6243495;23;20027;-74
2021/03/25 13:26:03;;;;;;;13.13;6.30;;;18.00;42.20;;;;;;6242477;23;20018;-75
2021/03/25 13:28:29;;;;;;;13.40;6.60;;;18.40;41.40;;;;;;6245087;23;19992;-74
2021/03/25 13:30:56;;;;;;;15.68;6.55;;;18.50;41.00;;;;;;6243186;23;20010;-77